Seaspan Chiwan — VRBH3 — position and weather

sailwx.info

Track history (hours):
 
Tides and Currents Weather Stations Pressure Air Temp Water Temp Dewpoint Dewpoint Depression Visibility Wind Speed Wind Dir Waves Ship Positions

Seaspan Chiwan

Last reported at 2014-Dec-18 16:33 UTC. Time now 2014-Dec-18 17:22 UTC.
Position N 47°15' W 122°23'.

Length 260 m; draft 8.7 m.

Type: Cargo ship. MMSI: 477014500.

Date/timePositionNaut miles runAvg speedWind from/ knotsBaromVisibWave heightAir tempDewpointWater temp
2014-Dec-18 16:33N 47°15' W 122°23'0 0.0
2014-Dec-18 15:33N 47°15' W 122°23'0 0.0
2014-Dec-18 14:31N 47°15' W 122°23'3 2.8
2014-Dec-18 13:33N 47°17' W 122°26'10 9.5
2014-Dec-18 12:34N 47°27' W 122°24'1615.5
2014-Dec-18 11:34N 47°42' W 122°28'1514.9
2014-Dec-18 10:34N 47°57' W 122°32'1615.9
2014-Dec-18 09:34N 48°10' W 122°46'1717.0
2014-Dec-18 08:33N 48°12' W 123°11'1212.2
2014-Dec-18 07:34N 48°12' W 123°29'8 7.7
2014-Dec-18 06:33N 48°13' W 123°41'1313.1
2014-Dec-18 05:33N 48°15' W 124°00'1818.3
2014-Dec-18 04:33N 48°23' W 124°25'1717.3
2014-Dec-18 03:33N 48°29' W 124°49'1616.4
2014-Dec-18 02:33N 48°18' W 125°08'1919.0
2014-Dec-18 01:32N 47°59' W 125°14'5618.8
2014-Dec-17 22:33N 47°03' W 125°15'1918.8
2014-Dec-17 21:34N 46°44' W 125°14'1919.0
2014-Dec-17 20:33N 46°25' W 125°13'1918.6
2014-Dec-17 19:33N 46°06' W 125°13'2317.9
2014-Dec-17 18:17N 45°44' W 125°12'1317.8
2014-Dec-17 17:33N 45°31' W 125°11'2018.4
2014-Dec-17 16:27N 45°10' W 125°10'39718.7
2014-Dec-16 19:15N 38°36' W 124°08'1319.0
2014-Dec-16 18:33N 38°27' W 123°55'1919.0
2014-Dec-16 17:33N 38°14' W 123°38'1817.7
2014-Dec-16 16:33N 38°06' W 123°17'1818.4
2014-Dec-16 15:33N 37°54' W 122°59'1717.3
2014-Dec-16 14:34N 37°46' W 122°40'1313.1
2014-Dec-16 13:33N 37°50' W 122°24'4 4.4
2014-Dec-16 12:33N 37°49' W 122°19'0 0.0
2014-Dec-16 11:33N 37°49' W 122°19'0 0.0
2014-Dec-16 10:33N 37°49' W 122°19'0 0.0
2014-Dec-16 09:33N 37°49' W 122°19'0 0.0
2014-Dec-16 08:33N 37°49' W 122°19'0 0.0
2014-Dec-16 07:33N 37°49' W 122°19'0 0.0
2014-Dec-16 06:33N 37°49' W 122°19'0 0.0
2014-Dec-16 05:33N 37°49' W 122°19'0 0.0
2014-Dec-16 04:33N 37°49' W 122°19'0 0.0
2014-Dec-16 03:32N 37°49' W 122°19'0 0.0
2014-Dec-16 02:33N 37°49' W 122°19'0 0.0
2014-Dec-16 01:33N 37°49' W 122°19'0 0.0
2014-Dec-16 00:33N 37°49' W 122°19'0 0.0
2014-Dec-15 23:33N 37°49' W 122°19'0 0.0
2014-Dec-15 22:33N 37°49' W 122°19'0 0.0
2014-Dec-15 21:33N 37°49' W 122°19'0 0.0
2014-Dec-15 20:33N 37°49' W 122°19'0 0.0
2014-Dec-15 19:33N 37°49' W 122°19'0 0.0
2014-Dec-15 18:33N 37°49' W 122°19'0 0.0
2014-Dec-15 17:33N 37°49' W 122°19'0 0.0
2014-Dec-15 16:33N 37°49' W 122°19'0 0.0
2014-Dec-15 15:33N 37°49' W 122°19'0 0.0
2014-Dec-15 14:33N 37°49' W 122°19'0 0.0
2014-Dec-15 13:33N 37°49' W 122°19'5 5.2
2014-Dec-15 12:33N 37°44' W 122°20'0 0.1
2014-Dec-15 11:33N 37°44' W 122°20'0 0.0
2014-Dec-15 10:33N 37°44' W 122°20'0 0.2
2014-Dec-15 09:33N 37°44' W 122°20'0 0.1
2014-Dec-15 08:33N 37°44' W 122°20'0 0.1
2014-Dec-15 07:33N 37°44' W 122°20'0 0.0
2014-Dec-15 06:33N 37°44' W 122°20'0 0.0
2014-Dec-15 05:33N 37°44' W 122°20'0 0.0
2014-Dec-15 04:33N 37°44' W 122°20'0 0.0
2014-Dec-15 03:33N 37°44' W 122°20'0 0.1
2014-Dec-15 02:33N 37°44' W 122°20'0 0.1
2014-Dec-15 01:33N 37°44' W 122°20'0 0.0
2014-Dec-15 00:30N 37°44' W 122°20'0 0.1
2014-Dec-14 23:33N 37°44' W 122°20'0 0.1
2014-Dec-14 22:33N 37°44' W 122°20'0 0.1
2014-Dec-14 21:33N 37°44' W 122°20'0 0.2
2014-Dec-14 20:33N 37°44' W 122°20'0 0.1
2014-Dec-14 19:33N 37°44' W 122°20'0 0.0
2014-Dec-14 18:27N 37°44' W 122°20'0 0.0
2014-Dec-14 17:33N 37°44' W 122°20'0 0.0
2014-Dec-14 16:33N 37°44' W 122°20'0 0.0
2014-Dec-14 15:33N 37°44' W 122°20'0 0.1
2014-Dec-14 14:33N 37°44' W 122°20'0 0.2
2014-Dec-14 13:33N 37°44' W 122°20'0 0.0
2014-Dec-14 12:33N 37°44' W 122°20'0 0.0
2014-Dec-14 11:33N 37°44' W 122°20'0 0.0
2014-Dec-14 10:33N 37°44' W 122°20'0 0.0
2014-Dec-14 09:33N 37°44' W 122°20'0 0.1
2014-Dec-14 08:33N 37°44' W 122°20'0 0.2
2014-Dec-14 07:33N 37°44' W 122°20'0 0.1
2014-Dec-14 06:33N 37°44' W 122°20'0 0.0
2014-Dec-14 05:33N 37°44' W 122°20'0 0.0
2014-Dec-14 04:33N 37°44' W 122°20'0 0.0
2014-Dec-14 03:33N 37°44' W 122°20'0 0.0
2014-Dec-14 02:33N 37°44' W 122°20'0 0.1
2014-Dec-14 01:33N 37°44' W 122°20'0 0.2
2014-Dec-14 00:33N 37°44' W 122°20'0 0.0
2014-Dec-13 23:33N 37°44' W 122°20'0 0.0
2014-Dec-13 22:33N 37°44' W 122°20'0 0.0
2014-Dec-13 21:33N 37°44' W 122°20'0 0.1
2014-Dec-13 20:33N 37°44' W 122°20'0 0.1
2014-Dec-13 19:33N 37°44' W 122°20'0 0.1
2014-Dec-13 18:33N 37°44' W 122°20'0 0.0
2014-Dec-13 17:33N 37°44' W 122°20'0 0.0
2014-Dec-13 16:33N 37°44' W 122°20'0 0.1
2014-Dec-13 15:33N 37°44' W 122°20'0 0.2
2014-Dec-13 14:30N 37°44' W 122°20'0 0.0
2014-Dec-13 13:33N 37°44' W 122°20'0 0.0
2014-Dec-13 12:33N 37°44' W 122°20'0 0.0
2014-Dec-13 11:33N 37°44' W 122°20'0 0.0
2014-Dec-13 10:33N 37°44' W 122°20'0 0.0
2014-Dec-13 09:33N 37°44' W 122°20'0 0.0
2014-Dec-13 08:33N 37°44' W 122°20'0 0.0
2014-Dec-13 07:33N 37°44' W 122°20'0 0.2
2014-Dec-13 06:33N 37°44' W 122°20'0 0.1
2014-Dec-13 05:33N 37°44' W 122°20'0 0.0
2014-Dec-13 04:33N 37°44' W 122°20'0 0.0
2014-Dec-13 03:33N 37°44' W 122°20'0 0.0
2014-Dec-13 02:33N 37°44' W 122°20'0 0.0
2014-Dec-13 01:33N 37°44' W 122°20'0 0.1
2014-Dec-13 00:33N 37°44' W 122°20'0 0.2
2014-Dec-12 23:33N 37°44' W 122°20'0 0.0
2014-Dec-12 22:33N 37°44' W 122°20'0 0.0
2014-Dec-12 21:33N 37°44' W 122°20'0 0.0
2014-Dec-12 20:33N 37°44' W 122°20'0 0.2
2014-Dec-12 19:33N 37°44' W 122°20'0 0.1
2014-Dec-12 18:33N 37°44' W 122°20'0 0.1
2014-Dec-12 17:33N 37°44' W 122°20'0 0.0
2014-Dec-12 16:33N 37°44' W 122°20'0 0.0
2014-Dec-12 15:33N 37°44' W 122°20'0 0.0
2014-Dec-12 14:33N 37°44' W 122°20'0 0.1
2014-Dec-12 13:33N 37°44' W 122°20'0 0.2
2014-Dec-12 12:33N 37°44' W 122°20'0 0.0
2014-Dec-12 11:33N 37°44' W 122°20'0 0.0
2014-Dec-12 10:33N 37°44' W 122°20'0 0.0
2014-Dec-12 09:33N 37°44' W 122°20'0 0.0
2014-Dec-12 08:33N 37°44' W 122°20'0 0.0
2014-Dec-12 07:33N 37°44' W 122°20'0 0.1
2014-Dec-12 06:33N 37°44' W 122°20'0 0.2
2014-Dec-12 05:33N 37°44' W 122°20'0 0.0
2014-Dec-12 04:33N 37°44' W 122°20'0 0.0
2014-Dec-12 03:33N 37°44' W 122°20'0 0.0
2014-Dec-12 02:33N 37°44' W 122°20'0 0.0
2014-Dec-12 01:33N 37°44' W 122°20'0 0.0
2014-Dec-12 00:33N 37°44' W 122°20'0 0.0
2014-Dec-11 23:33N 37°44' W 122°20'0 0.1
2014-Dec-11 22:33N 37°44' W 122°20'0 0.2
2014-Dec-11 21:33N 37°44' W 122°20'0 0.0
2014-Dec-11 20:33N 37°44' W 122°20'0 0.1
2014-Dec-11 19:33N 37°44' W 122°20'0 0.1
2014-Dec-11 18:33N 37°44' W 122°20'0 0.1
2014-Dec-11 17:33N 37°44' W 122°20'0 0.0
2014-Dec-11 16:33N 37°44' W 122°20'3 2.6
2014-Dec-11 15:33N 37°46' W 122°22'9 8.9
2014-Dec-11 14:33N 37°47' W 122°33'9 9.4
2014-Dec-11 13:33N 37°43' W 122°44'6 6.2
2014-Dec-11 12:33N 37°40' W 122°50'7 6.9
2014-Dec-11 11:33N 37°35' W 122°57'7 6.9
2014-Dec-11 10:33N 37°30' W 123°03'1212.1
2014-Dec-11 09:33N 37°18' W 123°00'1212.3
2014-Dec-11 08:33N 37°07' W 122°55'1212.2
2014-Dec-11 07:33N 36°55' W 122°49'1311.9
2014-Dec-11 06:28N 36°43' W 122°44'1111.9
2014-Dec-11 05:33N 36°33' W 122°39'1212.2
2014-Dec-11 04:33N 36°22' W 122°33'1212.3
2014-Dec-11 03:33N 36°11' W 122°27'1211.6
2014-Dec-11 02:33N 36°01' W 122°19'1111.5
2014-Dec-11 01:33N 35°51' W 122°12'1111.4
2014-Dec-11 00:33N 35°42' W 122°04'1111.2
2014-Dec-10 23:32N 35°32' W 121°57'1110.8
2014-Dec-10 22:33N 35°23' W 121°50'1110.8
2014-Dec-10 21:33N 35°14' W 121°43'1110.7
2014-Dec-10 20:32N 35°05' W 121°35'1110.5
2014-Dec-10 19:32N 34°56' W 121°28'9 9.2
2014-Dec-10 18:32N 34°48' W 121°22'8 8.1
2014-Dec-10 17:33N 34°41' W 121°18'1111.4
2014-Dec-10 16:33N 34°31' W 121°10'1111.0
2014-Dec-10 15:33N 34°27' W 120°58'1211.3
2014-Dec-10 14:32N 34°25' W 120°44'1110.9
2014-Dec-10 13:32N 34°22' W 120°32'2311.4
2014-Dec-10 11:33N 34°16' W 120°05'1111.4
2014-Dec-10 10:33N 34°13' W 119°52'1111.4
2014-Dec-10 09:33N 34°10' W 119°39'1211.9
2014-Dec-10 08:33N 34°06' W 119°25'1212.1
2014-Dec-10 07:33N 34°02' W 119°11'1211.7
2014-Dec-10 06:33N 33°57' W 118°59'1211.9
2014-Dec-10 05:33N 33°51' W 118°47'1211.9
2014-Dec-10 04:33N 33°45' W 118°34'1111.4
2014-Dec-10 03:33N 33°40' W 118°22'6 6.5
2014-Dec-10 02:33N 33°43' W 118°15'1 1.0
2014-Dec-10 01:31N 33°44' W 118°15'0 0.0
2014-Dec-10 00:31N 33°44' W 118°15'0 0.0
2014-Dec-09 23:31N 33°44' W 118°15'0 0.0
2014-Dec-09 22:31N 33°44' W 118°15'0 0.0
2014-Dec-09 21:31N 33°44' W 118°15'0 0.0
2014-Dec-09 20:31N 33°44' W 118°15'0 0.0
2014-Dec-09 19:19N 33°44' W 118°15'0 0.0
2014-Dec-09 18:28N 33°44' W 118°15'0 0.0
2014-Dec-09 17:31N 33°44' W 118°15'0 0.0
2014-Dec-09 16:31N 33°44' W 118°15'0 0.0
2014-Dec-09 15:28N 33°44' W 118°15'0 0.0
2014-Dec-09 14:31N 33°44' W 118°15'0 0.0
2014-Dec-09 13:16N 33°44' W 118°15'0 0.0
2014-Dec-09 12:28N 33°44' W 118°15'0 0.0
2014-Dec-09 11:31N 33°44' W 118°15'0 0.0
2014-Dec-09 10:31N 33°44' W 118°15'0 0.0
2014-Dec-09 09:31N 33°44' W 118°15'0 0.0
2014-Dec-09 08:31N 33°44' W 118°15'0 0.0
2014-Dec-09 07:31N 33°44' W 118°15'0 0.0
2014-Dec-09 06:31N 33°44' W 118°15'0 0.0
2014-Dec-09 05:31N 33°44' W 118°15'0 0.0
2014-Dec-09 04:31N 33°44' W 118°15'0 0.0
2014-Dec-09 03:28N 33°44' W 118°15'0 0.0
2014-Dec-09 02:31N 33°44' W 118°15'0 0.0
2014-Dec-09 01:31N 33°44' W 118°15'0 0.0
2014-Dec-09 00:31N 33°44' W 118°15'0 0.0
2014-Dec-08 23:31N 33°44' W 118°15'0 0.0
2014-Dec-08 22:31N 33°44' W 118°15'0 0.0
2014-Dec-08 21:31N 33°44' W 118°15'0 0.0
2014-Dec-08 20:31N 33°44' W 118°15'0 0.0
2014-Dec-08 19:31N 33°44' W 118°15'0 0.0
2014-Dec-08 18:31N 33°44' W 118°15'0 0.0
2014-Dec-08 17:22N 33°44' W 118°15'  
Track history (hours):
 
Tides and Currents Weather Stations Pressure Air Temp Water Temp Dewpoint Dewpoint Depression Visibility Wind Speed Wind Dir Waves Ship Positions

Seaspan Chiwan

Last reported at 2014-Dec-18 16:33 UTC. Time now 2014-Dec-18 17:22 UTC.
Position N 47°15' W 122°23'.

Length 260 m; draft 8.7 m.

Type: Cargo ship. MMSI: 477014500.

Date/timePositionNaut miles runAvg speedWind from/ knotsBaromVisibWave heightAir tempDewpointWater temp
2014-Dec-18 16:33N 47°15' W 122°23'0 0.0
2014-Dec-18 15:33N 47°15' W 122°23'0 0.0
2014-Dec-18 14:31N 47°15' W 122°23'3 2.8
2014-Dec-18 13:33N 47°17' W 122°26'10 9.5
2014-Dec-18 12:34N 47°27' W 122°24'1615.5
2014-Dec-18 11:34N 47°42' W 122°28'1514.9
2014-Dec-18 10:34N 47°57' W 122°32'1615.9
2014-Dec-18 09:34N 48°10' W 122°46'1717.0
2014-Dec-18 08:33N 48°12' W 123°11'1212.2
2014-Dec-18 07:34N 48°12' W 123°29'8 7.7
2014-Dec-18 06:33N 48°13' W 123°41'1313.1
2014-Dec-18 05:33N 48°15' W 124°00'1818.3
2014-Dec-18 04:33N 48°23' W 124°25'1717.3
2014-Dec-18 03:33N 48°29' W 124°49'1616.4
2014-Dec-18 02:33N 48°18' W 125°08'1919.0
2014-Dec-18 01:32N 47°59' W 125°14'5618.8
2014-Dec-17 22:33N 47°03' W 125°15'1918.8
2014-Dec-17 21:34N 46°44' W 125°14'1919.0
2014-Dec-17 20:33N 46°25' W 125°13'1918.6
2014-Dec-17 19:33N 46°06' W 125°13'2317.9
2014-Dec-17 18:17N 45°44' W 125°12'1317.8
2014-Dec-17 17:33N 45°31' W 125°11'2018.4
2014-Dec-17 16:27N 45°10' W 125°10'39718.7
2014-Dec-16 19:15N 38°36' W 124°08'1319.0
2014-Dec-16 18:33N 38°27' W 123°55'1919.0
2014-Dec-16 17:33N 38°14' W 123°38'1817.7
2014-Dec-16 16:33N 38°06' W 123°17'1818.4
2014-Dec-16 15:33N 37°54' W 122°59'1717.3
2014-Dec-16 14:34N 37°46' W 122°40'1313.1
2014-Dec-16 13:33N 37°50' W 122°24'4 4.4
2014-Dec-16 12:33N 37°49' W 122°19'0 0.0
2014-Dec-16 11:33N 37°49' W 122°19'0 0.0
2014-Dec-16 10:33N 37°49' W 122°19'0 0.0
2014-Dec-16 09:33N 37°49' W 122°19'0 0.0
2014-Dec-16 08:33N 37°49' W 122°19'0 0.0
2014-Dec-16 07:33N 37°49' W 122°19'0 0.0
2014-Dec-16 06:33N 37°49' W 122°19'0 0.0
2014-Dec-16 05:33N 37°49' W 122°19'0 0.0
2014-Dec-16 04:33N 37°49' W 122°19'0 0.0
2014-Dec-16 03:32N 37°49' W 122°19'0 0.0
2014-Dec-16 02:33N 37°49' W 122°19'0 0.0
2014-Dec-16 01:33N 37°49' W 122°19'0 0.0
2014-Dec-16 00:33N 37°49' W 122°19'0 0.0
2014-Dec-15 23:33N 37°49' W 122°19'0 0.0
2014-Dec-15 22:33N 37°49' W 122°19'0 0.0
2014-Dec-15 21:33N 37°49' W 122°19'0 0.0
2014-Dec-15 20:33N 37°49' W 122°19'0 0.0
2014-Dec-15 19:33N 37°49' W 122°19'0 0.0
2014-Dec-15 18:33N 37°49' W 122°19'0 0.0
2014-Dec-15 17:33N 37°49' W 122°19'0 0.0
2014-Dec-15 16:33N 37°49' W 122°19'0 0.0
2014-Dec-15 15:33N 37°49' W 122°19'0 0.0
2014-Dec-15 14:33N 37°49' W 122°19'0 0.0
2014-Dec-15 13:33N 37°49' W 122°19'5 5.2
2014-Dec-15 12:33N 37°44' W 122°20'0 0.1
2014-Dec-15 11:33N 37°44' W 122°20'0 0.0
2014-Dec-15 10:33N 37°44' W 122°20'0 0.2
2014-Dec-15 09:33N 37°44' W 122°20'0 0.1
2014-Dec-15 08:33N 37°44' W 122°20'0 0.1
2014-Dec-15 07:33N 37°44' W 122°20'0 0.0
2014-Dec-15 06:33N 37°44' W 122°20'0 0.0
2014-Dec-15 05:33N 37°44' W 122°20'0 0.0
2014-Dec-15 04:33N 37°44' W 122°20'0 0.0
2014-Dec-15 03:33N 37°44' W 122°20'0 0.1
2014-Dec-15 02:33N 37°44' W 122°20'0 0.1
2014-Dec-15 01:33N 37°44' W 122°20'0 0.0
2014-Dec-15 00:30N 37°44' W 122°20'0 0.1
2014-Dec-14 23:33N 37°44' W 122°20'0 0.1
2014-Dec-14 22:33N 37°44' W 122°20'0 0.1
2014-Dec-14 21:33N 37°44' W 122°20'0 0.2
2014-Dec-14 20:33N 37°44' W 122°20'0 0.1
2014-Dec-14 19:33N 37°44' W 122°20'0 0.0
2014-Dec-14 18:27N 37°44' W 122°20'0 0.0
2014-Dec-14 17:33N 37°44' W 122°20'0 0.0
2014-Dec-14 16:33N 37°44' W 122°20'0 0.0
2014-Dec-14 15:33N 37°44' W 122°20'0 0.1
2014-Dec-14 14:33N 37°44' W 122°20'0 0.2
2014-Dec-14 13:33N 37°44' W 122°20'0 0.0
2014-Dec-14 12:33N 37°44' W 122°20'0 0.0
2014-Dec-14 11:33N 37°44' W 122°20'0 0.0
2014-Dec-14 10:33N 37°44' W 122°20'0 0.0
2014-Dec-14 09:33N 37°44' W 122°20'0 0.1
2014-Dec-14 08:33N 37°44' W 122°20'0 0.2
2014-Dec-14 07:33N 37°44' W 122°20'0 0.1
2014-Dec-14 06:33N 37°44' W 122°20'0 0.0
2014-Dec-14 05:33N 37°44' W 122°20'0 0.0
2014-Dec-14 04:33N 37°44' W 122°20'0 0.0
2014-Dec-14 03:33N 37°44' W 122°20'0 0.0
2014-Dec-14 02:33N 37°44' W 122°20'0 0.1
2014-Dec-14 01:33N 37°44' W 122°20'0 0.2
2014-Dec-14 00:33N 37°44' W 122°20'0 0.0
2014-Dec-13 23:33N 37°44' W 122°20'0 0.0
2014-Dec-13 22:33N 37°44' W 122°20'0 0.0
2014-Dec-13 21:33N 37°44' W 122°20'0 0.1
2014-Dec-13 20:33N 37°44' W 122°20'0 0.1
2014-Dec-13 19:33N 37°44' W 122°20'0 0.1
2014-Dec-13 18:33N 37°44' W 122°20'0 0.0
2014-Dec-13 17:33N 37°44' W 122°20'0 0.0
2014-Dec-13 16:33N 37°44' W 122°20'0 0.1
2014-Dec-13 15:33N 37°44' W 122°20'0 0.2
2014-Dec-13 14:30N 37°44' W 122°20'0 0.0
2014-Dec-13 13:33N 37°44' W 122°20'0 0.0
2014-Dec-13 12:33N 37°44' W 122°20'0 0.0
2014-Dec-13 11:33N 37°44' W 122°20'0 0.0
2014-Dec-13 10:33N 37°44' W 122°20'0 0.0
2014-Dec-13 09:33N 37°44' W 122°20'0 0.0
2014-Dec-13 08:33N 37°44' W 122°20'0 0.0
2014-Dec-13 07:33N 37°44' W 122°20'0 0.2
2014-Dec-13 06:33N 37°44' W 122°20'0 0.1
2014-Dec-13 05:33N 37°44' W 122°20'0 0.0
2014-Dec-13 04:33N 37°44' W 122°20'0 0.0
2014-Dec-13 03:33N 37°44' W 122°20'0 0.0
2014-Dec-13 02:33N 37°44' W 122°20'0 0.0
2014-Dec-13 01:33N 37°44' W 122°20'0 0.1
2014-Dec-13 00:33N 37°44' W 122°20'0 0.2
2014-Dec-12 23:33N 37°44' W 122°20'0 0.0
2014-Dec-12 22:33N 37°44' W 122°20'0 0.0
2014-Dec-12 21:33N 37°44' W 122°20'0 0.0
2014-Dec-12 20:33N 37°44' W 122°20'0 0.2
2014-Dec-12 19:33N 37°44' W 122°20'0 0.1
2014-Dec-12 18:33N 37°44' W 122°20'0 0.1
2014-Dec-12 17:33N 37°44' W 122°20'0 0.0
2014-Dec-12 16:33N 37°44' W 122°20'0 0.0
2014-Dec-12 15:33N 37°44' W 122°20'0 0.0
2014-Dec-12 14:33N 37°44' W 122°20'0 0.1
2014-Dec-12 13:33N 37°44' W 122°20'0 0.2
2014-Dec-12 12:33N 37°44' W 122°20'0 0.0
2014-Dec-12 11:33N 37°44' W 122°20'0 0.0
2014-Dec-12 10:33N 37°44' W 122°20'0 0.0
2014-Dec-12 09:33N 37°44' W 122°20'0 0.0
2014-Dec-12 08:33N 37°44' W 122°20'0 0.0
2014-Dec-12 07:33N 37°44' W 122°20'0 0.1
2014-Dec-12 06:33N 37°44' W 122°20'0 0.2
2014-Dec-12 05:33N 37°44' W 122°20'0 0.0
2014-Dec-12 04:33N 37°44' W 122°20'0 0.0
2014-Dec-12 03:33N 37°44' W 122°20'0 0.0
2014-Dec-12 02:33N 37°44' W 122°20'0 0.0
2014-Dec-12 01:33N 37°44' W 122°20'0 0.0
2014-Dec-12 00:33N 37°44' W 122°20'0 0.0
2014-Dec-11 23:33N 37°44' W 122°20'0 0.1
2014-Dec-11 22:33N 37°44' W 122°20'0 0.2
2014-Dec-11 21:33N 37°44' W 122°20'0 0.0
2014-Dec-11 20:33N 37°44' W 122°20'0 0.1
2014-Dec-11 19:33N 37°44' W 122°20'0 0.1
2014-Dec-11 18:33N 37°44' W 122°20'0 0.1
2014-Dec-11 17:33N 37°44' W 122°20'0 0.0
2014-Dec-11 16:33N 37°44' W 122°20'3 2.6
2014-Dec-11 15:33N 37°46' W 122°22'9 8.9
2014-Dec-11 14:33N 37°47' W 122°33'9 9.4
2014-Dec-11 13:33N 37°43' W 122°44'6 6.2
2014-Dec-11 12:33N 37°40' W 122°50'7 6.9
2014-Dec-11 11:33N 37°35' W 122°57'7 6.9
2014-Dec-11 10:33N 37°30' W 123°03'1212.1
2014-Dec-11 09:33N 37°18' W 123°00'1212.3
2014-Dec-11 08:33N 37°07' W 122°55'1212.2
2014-Dec-11 07:33N 36°55' W 122°49'1311.9
2014-Dec-11 06:28N 36°43' W 122°44'1111.9
2014-Dec-11 05:33N 36°33' W 122°39'1212.2
2014-Dec-11 04:33N 36°22' W 122°33'1212.3
2014-Dec-11 03:33N 36°11' W 122°27'1211.6
2014-Dec-11 02:33N 36°01' W 122°19'1111.5
2014-Dec-11 01:33N 35°51' W 122°12'1111.4
2014-Dec-11 00:33N 35°42' W 122°04'1111.2
2014-Dec-10 23:32N 35°32' W 121°57'1110.8
2014-Dec-10 22:33N 35°23' W 121°50'1110.8
2014-Dec-10 21:33N 35°14' W 121°43'1110.7
2014-Dec-10 20:32N 35°05' W 121°35'1110.5
2014-Dec-10 19:32N 34°56' W 121°28'9 9.2
2014-Dec-10 18:32N 34°48' W 121°22'8 8.1
2014-Dec-10 17:33N 34°41' W 121°18'1111.4
2014-Dec-10 16:33N 34°31' W 121°10'1111.0
2014-Dec-10 15:33N 34°27' W 120°58'1211.3
2014-Dec-10 14:32N 34°25' W 120°44'1110.9
2014-Dec-10 13:32N 34°22' W 120°32'2311.4
2014-Dec-10 11:33N 34°16' W 120°05'1111.4
2014-Dec-10 10:33N 34°13' W 119°52'1111.4
2014-Dec-10 09:33N 34°10' W 119°39'1211.9
2014-Dec-10 08:33N 34°06' W 119°25'1212.1
2014-Dec-10 07:33N 34°02' W 119°11'1211.7
2014-Dec-10 06:33N 33°57' W 118°59'1211.9
2014-Dec-10 05:33N 33°51' W 118°47'1211.9
2014-Dec-10 04:33N 33°45' W 118°34'1111.4
2014-Dec-10 03:33N 33°40' W 118°22'6 6.5
2014-Dec-10 02:33N 33°43' W 118°15'1 1.0
2014-Dec-10 01:31N 33°44' W 118°15'0 0.0
2014-Dec-10 00:31N 33°44' W 118°15'0 0.0
2014-Dec-09 23:31N 33°44' W 118°15'0 0.0
2014-Dec-09 22:31N 33°44' W 118°15'0 0.0
2014-Dec-09 21:31N 33°44' W 118°15'0 0.0
2014-Dec-09 20:31N 33°44' W 118°15'0 0.0
2014-Dec-09 19:19N 33°44' W 118°15'0 0.0
2014-Dec-09 18:28N 33°44' W 118°15'0 0.0
2014-Dec-09 17:31N 33°44' W 118°15'0 0.0
2014-Dec-09 16:31N 33°44' W 118°15'0 0.0
2014-Dec-09 15:28N 33°44' W 118°15'0 0.0
2014-Dec-09 14:31N 33°44' W 118°15'0 0.0
2014-Dec-09 13:16N 33°44' W 118°15'0 0.0
2014-Dec-09 12:28N 33°44' W 118°15'0 0.0
2014-Dec-09 11:31N 33°44' W 118°15'0 0.0
2014-Dec-09 10:31N 33°44' W 118°15'0 0.0
2014-Dec-09 09:31N 33°44' W 118°15'0 0.0
2014-Dec-09 08:31N 33°44' W 118°15'0 0.0
2014-Dec-09 07:31N 33°44' W 118°15'0 0.0
2014-Dec-09 06:31N 33°44' W 118°15'0 0.0
2014-Dec-09 05:31N 33°44' W 118°15'0 0.0
2014-Dec-09 04:31N 33°44' W 118°15'0 0.0
2014-Dec-09 03:28N 33°44' W 118°15'0 0.0
2014-Dec-09 02:31N 33°44' W 118°15'0 0.0
2014-Dec-09 01:31N 33°44' W 118°15'0 0.0
2014-Dec-09 00:31N 33°44' W 118°15'0 0.0
2014-Dec-08 23:31N 33°44' W 118°15'0 0.0
2014-Dec-08 22:31N 33°44' W 118°15'0 0.0
2014-Dec-08 21:31N 33°44' W 118°15'0 0.0
2014-Dec-08 20:31N 33°44' W 118°15'0 0.0
2014-Dec-08 19:31N 33°44' W 118°15'0 0.0
2014-Dec-08 18:31N 33°44' W 118°15'0 0.0
2014-Dec-08 17:22N 33°44' W 118°15'  

Dump ship's entire track history